ADDS METAR Data INFO
IDs: Format: Raw Decoded Include TAF

Data at: 1717 UTC 23 Oct 2017

KLOZ 231653Z AUTO 00000KT 5SM RA BR FEW004 BKN070 OVC085 16/15 A2985 RMK AO2 SLP100 P0008 T01610150
KLOZ 231627Z AUTO 08005KT 8SM -RA SCT004 SCT065 OVC090 16/15 A2983 RMK AO2 P0003 T01610150
KLOZ 231553Z AUTO 00000KT 10SM -RA OVC095 16/15 A2985 RMK AO2 SLP101 P0018 T01610150
KLOZ 231534Z AUTO 01003KT 4SM RA BR OVC085 16/15 A2986 RMK AO2 P0015 T01610150
KLOZ 231526Z AUTO 35004KT 2 1/2SM RA BR OVC085 16/14 A2987 RMK AO2 P0013 T01560144
KLOZ 231516Z AUTO 00000KT 1 3/4SM +RA BR FEW039 BKN075 OVC090 16/14 A2987 RMK AO2 P0010 T01560144
KLOZ 231508Z AUTO 30003KT 3SM RA BR FEW009 BKN080 OVC090 16/14 A2988 RMK AO2 P0006 T01560144
KLOZ 231453Z AUTO 30006KT 2SM +RA BR FEW008 BKN039 OVC070 16/15 A2989 RMK AO2 PK WND 28026/1405 SLP112 P0052 60062 T01610150 53007
KLOZ 231446Z AUTO 31004KT 1 3/4SM +RA BR FEW008 BKN037 OVC070 16/15 A2988 RMK AO2 PK WND 28026/1405 P0049 T01610150
KLOZ 231426Z AUTO 29009KT 1SM +RA BR FEW012 OVC033 16/15 A2988 RMK AO2 PK WND 28026/1405 P0038 T01610150
KLOZ 231411Z AUTO 31009G26KT 3/4SM +RA BR FEW014 BKN024 OVC085 17/16 A2988 RMK AO2 PK WND 28026/1405 P0023 T01670156
KLOZ 231407Z AUTO 29014G26KT 1 3/4SM +RA BR FEW014 BKN034 OVC090 17/16 A2989 RMK AO2 PK WND 28026/1405 PRESRR P0011 T01720161
KLOZ 231353Z AUTO VRB03KT 7SM RA FEW046 BKN085 OVC110 18/16 A2985 RMK AO2 SLP100 P0005 T01780161
KLOZ 231253Z AUTO 12006KT 10SM -RA FEW055 BKN095 OVC110 18/16 A2986 RMK AO2 SLP101 P0005 T01780156
KLOZ 231153Z AUTO 12004KT 10SM -RA OVC110 18/16 A2986 RMK AO2 SLP103 P0003 60003 70003 T01780156 10200 20178 58025
KLOZ 231053Z AUTO 11003KT 10SM -RA FEW095 OVC110 19/14 A2989 RMK AO2 RAE17B50 SLP111 P0000 T01890144
KLOZ 230953Z AUTO 14004KT 10SM -RA BKN100 19/14 A2992 RMK AO2 RAB45 SLP121 P0000 T01890139
KLOZ 230853Z AUTO 12005KT 10SM CLR 19/13 A2994 RMK AO2 SLP127 T01890133 58031
KLOZ 230753Z AUTO 12006KT 10SM CLR 19/13 A2997 RMK AO2 SLP139 T01940133
KLOZ 230653Z AUTO 14005KT 10SM CLR 19/13 A3001 RMK AO2 SLP152 T01940133
KLOZ 230553Z AUTO 15004KT 10SM CLR 19/13 A3004 RMK AO2 SLP160 T01940128 10194 20172 56020
KLOZ 230453Z AUTO 15007KT 10SM CLR 19/12 A3005 RMK AO2 SLP166 T01940122 402440072
KLOZ 230353Z AUTO 13005KT 10SM CLR 18/12 A3007 RMK AO2 SLP174 T01830117
KLOZ 230253Z AUTO 14004KT 10SM CLR 18/11 A3010 RMK AO2 SLP184 T01780106 56013
KLOZ 230153Z AUTO 00000KT 10SM CLR 18/11 A3011 RMK AO2 SLP189 T01780106
KLOZ 230053Z AUTO 00000KT 10SM CLR 19/11 A3012 RMK AO2 SLP195 T01890106
KLOZ 222353Z AUTO 14003KT 10SM CLR 19/11 A3014 RMK AO2 SLP201 T01940106 10244 20194 58007
KLOZ 222253Z AUTO 13004KT 10SM CLR 21/11 A3014 RMK AO2 SLP202 T02060111
KLOZ 222153Z AUTO 17004KT 10SM CLR 23/11 A3015 RMK AO2 SLP204 T02280111
KLOZ 222053Z AUTO 18012KT 10SM CLR 24/10 A3016 RMK AO2 SLP205 T02390100 56010
KLOZ 221953Z AUTO 17011G20KT 10SM CLR 24/11 A3017 RMK AO2 SLP209 T02390106
KLOZ 221853Z AUTO 18014G24KT 10SM CLR 24/09 A3017 RMK AO2 SLP211 T02390094
KLOZ 221753Z AUTO 18011G22KT 10SM CLR 23/09 A3019 RMK AO2 SLP216 T02330094 10239 20078 58022
KLOZ 221653Z AUTO 18008KT 10SM CLR 22/09 A3023 RMK AO2 SLP230 T02170094
KLOZ 221553Z AUTO 15006KT 10SM CLR 21/09 A3025 RMK AO2 SLP238 T02060089
KLOZ 221453Z AUTO 14004KT 10SM CLR 19/10 A3026 RMK AO2 SLP240 T01890100 51001
KLOZ 221353Z AUTO 13004KT 10SM CLR 16/10 A3026 RMK AO2 SLP242 T01560100
KLOZ 221253Z AUTO 00000KT 10SM CLR 11/08 A3025 RMK AO2 SLP243 T01110083
KLOZ 221153Z AUTO 00000KT 10SM CLR 08/06 A3025 RMK AO2 SLP242 T00830061 10100 20072 53002
KLOZ 221053Z AUTO 00000KT 10SM CLR 08/06 A3023 RMK AO2 SLP235 T00780061
KLOZ 220953Z AUTO 00000KT 8SM CLR 08/07 A3024 RMK AO2 SLP236 T00780067
KLOZ 220853Z AUTO 00000KT 8SM CLR 09/08 A3024 RMK AO2 SLP235 T00890078 53003
KLOZ 220753Z AUTO 00000KT 9SM CLR 09/08 A3024 RMK AO2 SLP234 T00890078
KLOZ 220653Z AUTO 00000KT 8SM CLR 09/08 A3023 RMK AO2 SLP231 T00940083
KLOZ 220553Z AUTO 00000KT 9SM CLR 10/09 A3024 RMK AO2 SLP232 T01000089 10161 20100 55005